createdAt,value
2022-10-09T00:00:30.884Z,8.98
2022-10-09T00:05:35.423Z,8.92
2022-10-09T00:10:44.899Z,8.87
2022-10-09T00:15:48.814Z,8.79
2022-10-09T00:20:50.552Z,8.76
2022-10-09T00:25:57.548Z,8.74
2022-10-09T00:31:06.205Z,8.70
2022-10-09T00:36:12.844Z,8.69
2022-10-09T00:41:16.856Z,8.66
2022-10-09T00:46:56.158Z,8.62
2022-10-09T00:52:04.177Z,8.60
2022-10-09T00:57:05.954Z,8.57
2022-10-09T01:02:08.097Z,8.55
2022-10-09T01:07:34.054Z,8.52
2022-10-09T01:12:53.779Z,8.46
2022-10-09T01:18:01.436Z,8.41
2022-10-09T01:23:34.173Z,8.37
2022-10-09T01:28:36.355Z,8.32
2022-10-09T01:33:43.733Z,8.30
2022-10-09T01:38:51.275Z,8.23
2022-10-09T01:44:00.044Z,8.21
2022-10-09T01:49:43.296Z,8.14
2022-10-09T01:54:50.528Z,8.10
2022-10-09T01:59:55.313Z,8.07
2022-10-09T02:04:58.206Z,8.05
2022-10-09T02:10:03.875Z,8.02
2022-10-09T02:15:06.033Z,7.93
2022-10-09T02:20:13.951Z,8.36
2022-10-09T02:25:20.742Z,8.12
2022-10-09T02:30:29.755Z,8.01
2022-10-09T02:35:34.421Z,7.93
2022-10-09T02:40:41.108Z,7.88
2022-10-09T02:45:43.797Z,7.80
2022-10-09T02:50:45.713Z,7.75
2022-10-09T02:55:49.543Z,7.72
2022-10-09T03:00:55.709Z,7.68
2022-10-09T03:06:05.968Z,7.63
2022-10-09T03:11:12.317Z,7.61
2022-10-09T03:16:18.844Z,7.57
2022-10-09T03:21:25.373Z,7.54
2022-10-09T03:26:31.198Z,7.49
2022-10-09T03:31:52.849Z,7.43
2022-10-09T03:36:57.204Z,7.39
2022-10-09T03:42:01.264Z,7.34
2022-10-09T03:47:04.174Z,7.28
2022-10-09T03:52:12.066Z,7.23
2022-10-09T03:57:13.828Z,7.18
2022-10-09T04:02:18.103Z,7.12
2022-10-09T04:07:23.901Z,7.07
2022-10-09T04:12:30.256Z,7.03
2022-10-09T04:17:31.968Z,6.97
2022-10-09T04:22:36.210Z,6.89
2022-10-09T04:27:48.074Z,6.86
2022-10-09T04:32:52.774Z,6.83
2022-10-09T04:37:54.489Z,6.80
2022-10-09T04:42:58.768Z,6.76
2022-10-09T04:48:00.475Z,6.74
2022-10-09T04:53:06.972Z,6.71
2022-10-09T04:58:09.533Z,6.72
2022-10-09T05:03:14.272Z,6.72
2022-10-09T05:08:20.479Z,6.67
2022-10-09T05:13:22.295Z,6.68
2022-10-09T05:18:31.393Z,6.67
2022-10-09T05:23:33.146Z,6.68
2022-10-09T05:28:40.517Z,6.62
2022-10-09T05:33:42.285Z,6.60
2022-10-09T05:38:48.690Z,6.58
2022-10-09T05:43:52.861Z,6.54
2022-10-09T05:49:00.223Z,6.52
2022-10-09T05:54:02.052Z,6.54
2022-10-09T05:59:13.829Z,6.56
2022-10-09T06:04:22.104Z,6.60
2022-10-09T06:09:25.557Z,6.67
2022-10-09T06:14:29.961Z,6.69
2022-10-09T06:19:31.858Z,6.73
2022-10-09T06:24:33.544Z,6.78
2022-10-09T06:29:39.490Z,6.86
2022-10-09T06:34:41.204Z,6.94
2022-10-09T06:39:48.118Z,7.04
2022-10-09T06:44:50.186Z,7.12
2022-10-09T06:49:57.231Z,7.19
2022-10-09T06:55:02.236Z,7.35
2022-10-09T07:00:07.001Z,7.48
2022-10-09T07:05:09.236Z,7.61
2022-10-09T07:10:13.273Z,7.71
2022-10-09T07:15:16.092Z,7.81
2022-10-09T07:20:20.783Z,7.92
2022-10-09T07:25:27.740Z,8.04
2022-10-09T07:30:40.266Z,8.15
2022-10-09T07:35:53.484Z,8.30
2022-10-09T07:41:03.488Z,8.43
2022-10-09T07:46:07.064Z,8.62
2022-10-09T07:51:21.045Z,8.81
2022-10-09T07:56:30.222Z,8.99
2022-10-09T08:01:33.712Z,9.15
2022-10-09T08:06:38.768Z,9.28
2022-10-09T08:11:40.792Z,9.47
2022-10-09T08:16:45.043Z,9.67
2022-10-09T08:21:47.785Z,9.84
2022-10-09T08:26:51.736Z,10.00
2022-10-09T08:31:57.154Z,10.18
2022-10-09T08:36:58.835Z,10.33
2022-10-09T08:42:03.468Z,10.48
2022-10-09T08:47:41.328Z,10.68
2022-10-09T08:52:53.967Z,10.91
2022-10-09T08:58:04.398Z,11.03
2022-10-09T09:03:20.588Z,11.17
2022-10-09T09:09:01.268Z,11.34
2022-10-09T09:14:14.968Z,11.43
2022-10-09T09:19:16.704Z,11.57
2022-10-09T09:24:23.754Z,11.69
2022-10-09T09:29:31.488Z,11.90
2022-10-09T09:34:41.461Z,12.07
2022-10-09T09:40:31.407Z,12.28
2022-10-09T09:45:08.004Z,12.38
2022-10-09T09:50:23.372Z,12.55
2022-10-09T09:55:31.871Z,12.70
2022-10-09T10:00:36.811Z,12.82
2022-10-09T10:05:42.036Z,12.92
2022-10-09T10:10:47.884Z,13.09
2022-10-09T10:15:56.492Z,13.14
2022-10-09T10:21:05.010Z,13.29
2022-10-09T10:26:34.606Z,13.30
2022-10-09T10:32:13.659Z,13.45
2022-10-09T10:37:15.346Z,13.71
2022-10-09T10:42:36.916Z,13.86
2022-10-09T10:47:45.644Z,13.97
2022-10-09T10:52:56.515Z,14.15
2022-10-09T10:58:06.999Z,14.34
2022-10-09T11:03:11.933Z,14.58
2022-10-09T11:08:53.794Z,14.92
2022-10-09T11:14:20.541Z,15.30
2022-10-09T11:19:45.732Z,15.55
2022-10-09T11:24:56.395Z,16.06
2022-10-09T11:30:09.939Z,16.62
2022-10-09T11:35:11.744Z,17.09
2022-10-09T11:40:22.066Z,17.11
2022-10-09T11:45:47.929Z,17.49
2022-10-09T11:51:00.118Z,17.70
2022-10-09T11:56:23.334Z,18.41
2022-10-09T12:01:31.951Z,18.76
2022-10-09T12:06:49.740Z,19.28
2022-10-09T12:12:01.720Z,19.35
2022-10-09T12:17:16.232Z,19.50
2022-10-09T12:22:25.926Z,20.33
2022-10-09T12:27:34.549Z,21.08
2022-10-09T12:32:46.476Z,22.09
2022-10-09T12:37:49.261Z,22.28
2022-10-09T12:42:53.559Z,22.92
2022-10-09T12:48:09.555Z,22.55
2022-10-09T12:53:22.173Z,23.02
2022-10-09T12:58:43.675Z,23.11
2022-10-09T13:09:04.737Z,23.55
2022-10-09T13:14:21.520Z,23.73
2022-10-09T13:19:31.921Z,23.72
2022-10-09T13:24:35.883Z,23.89
2022-10-09T13:29:40.416Z,23.85
2022-10-09T13:34:46.429Z,23.88
2022-10-09T13:39:52.433Z,24.38
2022-10-09T13:44:56.864Z,24.96
2022-10-09T13:49:58.722Z,24.68
2022-10-09T13:55:00.493Z,25.16
2022-10-09T14:00:04.809Z,25.02
2022-10-09T14:05:16.103Z,24.56
2022-10-09T14:10:23.617Z,24.58
2022-10-09T14:15:25.620Z,24.87
2022-10-09T14:20:28.634Z,24.59
2022-10-09T14:25:30.788Z,24.58
2022-10-09T14:30:46.815Z,24.81
2022-10-09T14:35:51.194Z,25.23
2022-10-09T14:40:56.346Z,25.29
2022-10-09T14:46:16.955Z,25.01
2022-10-09T14:51:26.220Z,24.65
2022-10-09T14:56:28.279Z,23.88
2022-10-09T15:01:32.676Z,23.08
2022-10-09T15:06:40.641Z,21.46
2022-10-09T15:11:49.702Z,20.34
2022-10-09T15:16:53.665Z,19.66
2022-10-09T15:21:55.453Z,19.06
2022-10-09T15:26:59.382Z,18.70
2022-10-09T15:32:03.986Z,18.36
2022-10-09T15:37:10.460Z,18.07
2022-10-09T15:42:17.420Z,17.87
2022-10-09T15:47:39.263Z,17.67
2022-10-09T15:52:45.932Z,17.35
2022-10-09T15:57:47.716Z,17.27
2022-10-09T16:02:52.787Z,17.14
2022-10-09T16:08:01.950Z,16.89
2022-10-09T16:13:06.389Z,16.70
2022-10-09T16:18:09.401Z,16.53
2022-10-09T16:23:11.990Z,16.32
2022-10-09T16:28:18.630Z,16.14
2022-10-09T16:33:20.681Z,15.92
2022-10-09T16:38:25.137Z,15.72
2022-10-09T16:43:34.032Z,15.54
2022-10-09T16:48:35.775Z,15.37
2022-10-09T16:53:39.745Z,15.24
2022-10-09T16:58:43.699Z,15.51
2022-10-09T17:03:47.830Z,15.09
2022-10-09T17:08:54.180Z,14.92
2022-10-09T17:13:57.044Z,14.77
2022-10-09T17:19:03.937Z,14.65
2022-10-09T17:24:06.393Z,14.54
2022-10-09T17:29:08.104Z,14.46
2022-10-09T17:34:11.884Z,14.35
2022-10-09T17:39:16.109Z,14.24
2022-10-09T17:44:22.815Z,14.15
2022-10-09T17:49:26.715Z,14.01
2022-10-09T17:54:29.478Z,13.95
2022-10-09T17:59:31.580Z,13.80
2022-10-09T18:04:38.224Z,13.73
2022-10-09T18:09:40.008Z,13.62
2022-10-09T18:14:46.501Z,13.46
2022-10-09T18:19:52.132Z,13.41
2022-10-09T18:24:53.952Z,13.33
2022-10-09T18:29:56.632Z,13.26
2022-10-09T18:35:02.471Z,13.14
2022-10-09T18:40:08.903Z,13.05
2022-10-09T18:45:14.631Z,12.98
2022-10-09T18:50:19.620Z,12.92
2022-10-09T18:55:21.544Z,12.81
2022-10-09T19:00:26.238Z,12.76
2022-10-09T19:05:30.341Z,12.67
2022-10-09T19:10:37.710Z,12.53
2022-10-09T19:15:39.486Z,12.46
2022-10-09T19:20:46.598Z,12.36
2022-10-09T19:25:50.450Z,12.28
2022-10-09T19:30:53.881Z,12.21
2022-10-09T19:35:59.094Z,12.14
2022-10-09T19:41:10.031Z,12.06
2022-10-09T19:46:14.465Z,11.98
2022-10-09T19:51:21.216Z,11.95
2022-10-09T19:56:31.456Z,11.88
2022-10-09T20:01:35.446Z,11.87
2022-10-09T20:06:41.487Z,11.83
2022-10-09T20:11:47.804Z,11.77
2022-10-09T20:16:52.177Z,11.69
2022-10-09T20:21:53.937Z,11.64
2022-10-09T20:26:57.860Z,11.59
2022-10-09T20:31:59.673Z,11.55
2022-10-09T20:37:06.067Z,11.50
2022-10-09T20:42:07.943Z,11.48
2022-10-09T20:47:12.019Z,11.43
2022-10-09T20:52:16.386Z,11.39
2022-10-09T20:57:20.378Z,11.33
2022-10-09T21:02:24.593Z,11.28
2022-10-09T21:07:28.904Z,11.25
2022-10-09T21:12:30.685Z,11.19
2022-10-09T21:17:40.372Z,11.16
2022-10-09T21:22:42.064Z,11.10
2022-10-09T21:27:43.768Z,11.07
2022-10-09T21:32:47.916Z,11.02
2022-10-09T21:37:50.530Z,11.01
2022-10-09T21:42:56.831Z,10.99
2022-10-09T21:48:00.815Z,10.96
2022-10-09T21:53:03.490Z,10.96
2022-10-09T21:58:08.941Z,10.94
2022-10-09T22:03:11.893Z,10.89
2022-10-09T22:08:13.675Z,10.87
2022-10-09T22:13:19.921Z,10.83
2022-10-09T22:18:21.615Z,10.82
2022-10-09T22:23:25.560Z,10.76
2022-10-09T22:28:31.948Z,10.72
2022-10-09T22:33:40.926Z,10.70
2022-10-09T22:38:45.972Z,10.68
2022-10-09T22:43:53.378Z,10.64
2022-10-09T22:48:55.176Z,10.58
2022-10-09T22:53:57.763Z,10.56
2022-10-09T22:59:02.356Z,10.51
2022-10-09T23:04:06.755Z,10.47
2022-10-09T23:09:14.169Z,10.44
2022-10-09T23:14:18.211Z,10.41
2022-10-09T23:19:22.215Z,10.37
2022-10-09T23:24:23.933Z,10.36
2022-10-09T23:29:25.715Z,10.32
2022-10-09T23:34:29.785Z,10.29
2022-10-09T23:39:33.690Z,10.27
2022-10-09T23:44:35.368Z,10.20
2022-10-09T23:49:41.832Z,10.17
2022-10-09T23:54:45.754Z,10.14
2022-10-09T23:59:48.455Z,10.11
